Terminal Aerodrome Forecast
Issued by NWS

Home | Current Version | Previous Version | Graphics & Text | Print | Product List | Glossary On
Versions: 1 2 3 4 5 6 7 8 9 10 11 12 13 14 15 16
000
FTUS42 KMHX 281720
TAFOAJ
TAF
KOAJ 281720Z 2818/2918 21009KT P6SM SCT035
     FM290700 20006KT P6SM SCT004 BKN007
     FM291300 21006KT P6SM SCT010
      AMD LTD TO CLD VIS AND WIND=

USA.gov is the U.S. government's official web portal to all federal, state and local government web resources and services.